sensor_id;sensor_type;location;lat;lon;timestamp;pressure;altitude;pressure_sealevel;temperature;humidity
51829;BME280;37881;48.024;8.774;2023-09-18T00:01:45;93549.84;;;16.77;100.00
51829;BME280;37881;48.024;8.774;2023-09-18T00:04:12;93571.56;;;16.70;100.00
51829;BME280;37881;48.024;8.774;2023-09-18T00:06:39;93598.81;;;16.44;100.00
51829;BME280;37881;48.024;8.774;2023-09-18T00:09:06;93606.03;;;16.41;100.00
51829;BME280;37881;48.024;8.774;2023-09-18T00:11:38;93604.34;;;16.44;100.00
51829;BME280;37881;48.024;8.774;2023-09-18T00:14:05;93569.13;;;16.44;100.00
51829;BME280;37881;48.024;8.774;2023-09-18T00:16:32;93542.34;;;16.41;100.00
51829;BME280;37881;48.024;8.774;2023-09-18T00:19:17;93519.88;;;16.57;100.00
51829;BME280;37881;48.024;8.774;2023-09-18T00:21:44;93534.34;;;16.52;100.00
51829;BME280;37881;48.024;8.774;2023-09-18T00:24:11;93540.66;;;16.53;100.00
51829;BME280;37881;48.024;8.774;2023-09-18T00:26:38;93539.72;;;16.65;100.00
51829;BME280;37881;48.024;8.774;2023-09-18T00:29:05;93535.53;;;16.70;100.00
51829;BME280;37881;48.024;8.774;2023-09-18T00:31:31;93517.81;;;16.86;100.00
51829;BME280;37881;48.024;8.774;2023-09-18T00:33:58;93512.34;;;16.49;100.00
51829;BME280;37881;48.024;8.774;2023-09-18T00:36:25;93510.03;;;16.56;100.00
51829;BME280;37881;48.024;8.774;2023-09-18T00:38:51;93503.53;;;16.69;100.00
51829;BME280;37881;48.024;8.774;2023-09-18T00:41:19;93512.75;;;16.75;100.00
51829;BME280;37881;48.024;8.774;2023-09-18T00:43:45;93505.81;;;16.80;100.00
51829;BME280;37881;48.024;8.774;2023-09-18T00:46:12;93497.66;;;16.85;100.00
51829;BME280;37881;48.024;8.774;2023-09-18T00:48:39;93495.97;;;16.88;100.00
51829;BME280;37881;48.024;8.774;2023-09-18T00:51:08;93496.75;;;16.88;100.00
51829;BME280;37881;48.024;8.774;2023-09-18T00:53:35;93495.50;;;16.89;100.00
51829;BME280;37881;48.024;8.774;2023-09-18T00:56:03;93489.50;;;16.82;100.00
51829;BME280;37881;48.024;8.774;2023-09-18T00:58:30;93489.53;;;16.72;100.00
51829;BME280;37881;48.024;8.774;2023-09-18T01:00:58;93476.59;;;16.69;100.00
51829;BME280;37881;48.024;8.774;2023-09-18T01:03:25;93470.13;;;16.82;100.00
51829;BME280;37881;48.024;8.774;2023-09-18T01:05:53;93457.16;;;16.88;100.00
51829;BME280;37881;48.024;8.774;2023-09-18T01:08:20;93455.59;;;16.96;100.00
51829;BME280;37881;48.024;8.774;2023-09-18T01:13:45;93436.69;;;16.94;100.00
51829;BME280;37881;48.024;8.774;2023-09-18T01:16:22;93438.31;;;17.01;100.00
51829;BME280;37881;48.024;8.774;2023-09-18T01:18:51;93438.94;;;16.96;100.00
51829;BME280;37881;48.024;8.774;2023-09-18T01:21:19;93445.66;;;16.71;100.00
51829;BME280;37881;48.024;8.774;2023-09-18T01:23:48;93443.69;;;16.53;100.00
51829;BME280;37881;48.024;8.774;2023-09-18T01:26:15;93442.44;;;16.63;100.00
51829;BME280;37881;48.024;8.774;2023-09-18T01:28:42;93439.06;;;16.68;100.00
51829;BME280;37881;48.024;8.774;2023-09-18T01:31:09;93434.44;;;16.65;100.00
51829;BME280;37881;48.024;8.774;2023-09-18T01:33:37;93441.53;;;16.66;100.00
51829;BME280;37881;48.024;8.774;2023-09-18T01:36:07;93441.97;;;16.65;100.00
51829;BME280;37881;48.024;8.774;2023-09-18T01:38:35;93447.38;;;16.59;100.00
51829;BME280;37881;48.024;8.774;2023-09-18T01:41:03;93448.63;;;16.49;100.00
51829;BME280;37881;48.024;8.774;2023-09-18T01:43:29;93449.44;;;16.40;100.00
51829;BME280;37881;48.024;8.774;2023-09-18T01:45:57;93450.66;;;16.48;100.00
51829;BME280;37881;48.024;8.774;2023-09-18T01:48:24;93448.94;;;16.42;100.00
51829;BME280;37881;48.024;8.774;2023-09-18T01:50:51;93447.44;;;16.31;100.00
51829;BME280;37881;48.024;8.774;2023-09-18T01:53:17;93437.25;;;16.37;100.00
51829;BME280;37881;48.024;8.774;2023-09-18T01:55:44;93444.34;;;16.38;100.00
51829;BME280;37881;48.024;8.774;2023-09-18T01:58:11;93438.97;;;16.44;100.00
51829;BME280;37881;48.024;8.774;2023-09-18T02:00:41;93454.50;;;16.42;100.00
51829;BME280;37881;48.024;8.774;2023-09-18T02:03:08;93456.03;;;16.43;100.00
51829;BME280;37881;48.024;8.774;2023-09-18T02:05:55;93466.22;;;16.09;100.00
51829;BME280;37881;48.024;8.774;2023-09-18T02:08:22;93470.53;;;15.82;100.00
51829;BME280;37881;48.024;8.774;2023-09-18T02:10:48;93482.53;;;15.88;100.00
51829;BME280;37881;48.024;8.774;2023-09-18T02:13:15;93484.06;;;15.98;100.00
51829;BME280;37881;48.024;8.774;2023-09-18T02:15:43;93475.59;;;16.11;100.00
51829;BME280;37881;48.024;8.774;2023-09-18T02:18:09;93468.69;;;16.16;100.00
51829;BME280;37881;48.024;8.774;2023-09-18T02:20:40;93473.59;;;16.21;100.00
51829;BME280;37881;48.024;8.774;2023-09-18T02:23:08;93473.91;;;16.23;100.00
51829;BME280;37881;48.024;8.774;2023-09-18T02:25:34;93462.22;;;16.28;100.00
51829;BME280;37881;48.024;8.774;2023-09-18T02:28:01;93454.69;;;16.29;100.00
51829;BME280;37881;48.024;8.774;2023-09-18T02:30:28;93451.78;;;15.86;100.00
51829;BME280;37881;48.024;8.774;2023-09-18T02:32:55;93456.06;;;15.87;100.00
51829;BME280;37881;48.024;8.774;2023-09-18T02:35:22;93457.00;;;16.12;100.00
51829;BME280;37881;48.024;8.774;2023-09-18T02:37:49;93456.72;;;16.10;100.00
51829;BME280;37881;48.024;8.774;2023-09-18T02:40:15;93457.13;;;16.17;100.00
51829;BME280;37881;48.024;8.774;2023-09-18T02:42:42;93446.84;;;16.00;100.00
51829;BME280;37881;48.024;8.774;2023-09-18T02:45:09;93438.56;;;15.81;100.00
51829;BME280;37881;48.024;8.774;2023-09-18T02:47:36;93429.78;;;15.64;100.00
51829;BME280;37881;48.024;8.774;2023-09-18T02:50:05;93444.06;;;15.63;100.00
51829;BME280;37881;48.024;8.774;2023-09-18T02:52:32;93459.88;;;15.71;100.00
51829;BME280;37881;48.024;8.774;2023-09-18T02:54:58;93461.78;;;15.74;100.00
51829;BME280;37881;48.024;8.774;2023-09-18T02:57:25;93484.78;;;15.71;100.00
51829;BME280;37881;48.024;8.774;2023-09-18T02:59:52;93480.38;;;15.74;100.00
51829;BME280;37881;48.024;8.774;2023-09-18T03:02:18;93483.19;;;15.43;100.00
51829;BME280;37881;48.024;8.774;2023-09-18T03:04:45;93498.88;;;15.46;100.00
51829;BME280;37881;48.024;8.774;2023-09-18T03:07:13;93511.94;;;15.45;100.00
51829;BME280;37881;48.024;8.774;2023-09-18T03:09:39;93529.44;;;15.42;100.00
51829;BME280;37881;48.024;8.774;2023-09-18T03:12:06;93530.97;;;15.43;100.00
51829;BME280;37881;48.024;8.774;2023-09-18T03:14:33;93554.53;;;15.57;100.00
51829;BME280;37881;48.024;8.774;2023-09-18T03:17:01;93554.38;;;15.61;100.00
51829;BME280;37881;48.024;8.774;2023-09-18T03:19:27;93552.06;;;15.50;100.00
51829;BME280;37881;48.024;8.774;2023-09-18T03:21:54;93543.38;;;15.29;100.00
51829;BME280;37881;48.024;8.774;2023-09-18T03:24:21;93527.03;;;15.53;100.00
51829;BME280;37881;48.024;8.774;2023-09-18T03:26:47;93535.16;;;15.57;100.00
51829;BME280;37881;48.024;8.774;2023-09-18T03:29:15;93521.50;;;15.63;100.00
51829;BME280;37881;48.024;8.774;2023-09-18T03:31:42;93508.59;;;15.60;100.00
51829;BME280;37881;48.024;8.774;2023-09-18T03:34:09;93513.88;;;15.76;100.00
51829;BME280;37881;48.024;8.774;2023-09-18T03:36:36;93506.81;;;16.03;100.00
51829;BME280;37881;48.024;8.774;2023-09-18T03:39:03;93497.72;;;16.48;100.00
51829;BME280;37881;48.024;8.774;2023-09-18T03:41:31;93489.28;;;16.43;100.00
51829;BME280;37881;48.024;8.774;2023-09-18T03:44:01;93504.19;;;16.45;100.00
51829;BME280;37881;48.024;8.774;2023-09-18T03:46:28;93495.72;;;16.49;100.00
51829;BME280;37881;48.024;8.774;2023-09-18T03:48:55;93476.00;;;16.65;100.00
51829;BME280;37881;48.024;8.774;2023-09-18T03:51:24;93482.97;;;17.03;100.00
51829;BME280;37881;48.024;8.774;2023-09-18T03:53:50;93472.06;;;17.00;100.00
51829;BME280;37881;48.024;8.774;2023-09-18T03:56:17;93479.31;;;16.97;100.00
51829;BME280;37881;48.024;8.774;2023-09-18T03:58:44;93477.44;;;17.03;100.00
51829;BME280;37881;48.024;8.774;2023-09-18T04:01:16;93478.00;;;17.16;100.00
51829;BME280;37881;48.024;8.774;2023-09-18T04:03:42;93477.78;;;17.29;100.00
51829;BME280;37881;48.024;8.774;2023-09-18T04:06:09;93474.00;;;17.42;100.00
51829;BME280;37881;48.024;8.774;2023-09-18T04:08:36;93472.59;;;17.46;100.00
51829;BME280;37881;48.024;8.774;2023-09-18T04:11:03;93463.81;;;17.48;100.00
51829;BME280;37881;48.024;8.774;2023-09-18T04:13:30;93462.09;;;17.50;100.00
51829;BME280;37881;48.024;8.774;2023-09-18T04:15:57;93458.69;;;17.55;100.00
51829;BME280;37881;48.024;8.774;2023-09-18T04:18:27;93466.03;;;17.58;100.00
51829;BME280;37881;48.024;8.774;2023-09-18T04:20:53;93462.88;;;17.51;100.00
51829;BME280;37881;48.024;8.774;2023-09-18T04:25:49;93453.28;;;17.28;100.00
51829;BME280;37881;48.024;8.774;2023-09-18T04:28:17;93450.34;;;17.31;100.00
51829;BME280;37881;48.024;8.774;2023-09-18T04:30:45;93436.31;;;17.35;100.00
51829;BME280;37881;48.024;8.774;2023-09-18T04:33:16;93440.59;;;17.36;100.00
51829;BME280;37881;48.024;8.774;2023-09-18T04:35:44;93429.38;;;17.30;100.00
51829;BME280;37881;48.024;8.774;2023-09-18T04:38:10;93447.59;;;17.22;100.00
51829;BME280;37881;48.024;8.774;2023-09-18T04:40:37;93452.56;;;17.18;100.00
51829;BME280;37881;48.024;8.774;2023-09-18T04:43:07;93458.00;;;17.12;100.00
51829;BME280;37881;48.024;8.774;2023-09-18T04:45:34;93449.84;;;17.09;100.00
51829;BME280;37881;48.024;8.774;2023-09-18T04:48:01;93452.63;;;17.09;100.00
51829;BME280;37881;48.024;8.774;2023-09-18T04:50:29;93448.75;;;17.06;100.00
51829;BME280;37881;48.024;8.774;2023-09-18T04:52:56;93455.25;;;17.03;100.00
51829;BME280;37881;48.024;8.774;2023-09-18T04:55:24;93454.38;;;16.88;100.00
51829;BME280;37881;48.024;8.774;2023-09-18T04:57:51;93451.31;;;16.86;100.00
51829;BME280;37881;48.024;8.774;2023-09-18T05:00:17;93447.03;;;16.85;100.00
51829;BME280;37881;48.024;8.774;2023-09-18T05:02:50;93453.91;;;16.80;100.00
51829;BME280;37881;48.024;8.774;2023-09-18T05:05:17;93459.47;;;16.80;100.00
51829;BME280;37881;48.024;8.774;2023-09-18T05:07:44;93456.38;;;16.78;100.00
51829;BME280;37881;48.024;8.774;2023-09-18T05:10:11;93457.78;;;16.73;100.00
51829;BME280;37881;48.024;8.774;2023-09-18T05:12:39;93466.09;;;16.73;100.00
51829;BME280;37881;48.024;8.774;2023-09-18T05:15:06;93473.41;;;16.52;100.00
51829;BME280;37881;48.024;8.774;2023-09-18T05:17:43;93467.53;;;16.60;100.00
51829;BME280;37881;48.024;8.774;2023-09-18T05:20:15;93468.75;;;16.68;100.00
51829;BME280;37881;48.024;8.774;2023-09-18T05:22:44;93479.53;;;16.66;100.00
51829;BME280;37881;48.024;8.774;2023-09-18T05:25:11;93484.91;;;16.69;100.00
51829;BME280;37881;48.024;8.774;2023-09-18T05:27:38;93486.81;;;16.45;100.00
51829;BME280;37881;48.024;8.774;2023-09-18T05:32:39;93483.69;;;16.52;100.00
51829;BME280;37881;48.024;8.774;2023-09-18T05:35:06;93488.78;;;16.63;100.00
51829;BME280;37881;48.024;8.774;2023-09-18T05:37:33;93482.91;;;16.70;100.00
51829;BME280;37881;48.024;8.774;2023-09-18T05:40:00;93473.00;;;16.78;100.00
51829;BME280;37881;48.024;8.774;2023-09-18T05:42:27;93466.44;;;16.85;100.00
51829;BME280;37881;48.024;8.774;2023-09-18T05:44:53;93465.63;;;16.93;100.00
51829;BME280;37881;48.024;8.774;2023-09-18T05:47:20;93463.13;;;16.95;100.00
51829;BME280;37881;48.024;8.774;2023-09-18T05:49:47;93469.28;;;17.00;100.00
51829;BME280;37881;48.024;8.774;2023-09-18T05:52:14;93471.44;;;17.05;100.00
51829;BME280;37881;48.024;8.774;2023-09-18T05:54:41;93472.31;;;17.11;100.00
51829;BME280;37881;48.024;8.774;2023-09-18T05:57:08;93478.63;;;17.11;100.00
51829;BME280;37881;48.024;8.774;2023-09-18T05:59:34;93495.00;;;17.00;100.00
51829;BME280;37881;48.024;8.774;2023-09-18T06:02:01;93496.84;;;17.03;100.00
51829;BME280;37881;48.024;8.774;2023-09-18T06:04:29;93494.03;;;17.12;100.00
51829;BME280;37881;48.024;8.774;2023-09-18T06:06:57;93491.13;;;17.07;100.00
51829;BME280;37881;48.024;8.774;2023-09-18T06:09:24;93501.13;;;17.13;100.00
51829;BME280;37881;48.024;8.774;2023-09-18T06:11:51;93497.13;;;17.14;100.00
51829;BME280;37881;48.024;8.774;2023-09-18T06:14:17;93492.03;;;17.13;100.00
51829;BME280;37881;48.024;8.774;2023-09-18T06:16:44;93486.09;;;16.77;100.00
51829;BME280;37881;48.024;8.774;2023-09-18T06:19:11;93487.50;;;16.73;100.00
51829;BME280;37881;48.024;8.774;2023-09-18T06:21:38;93476.25;;;16.95;100.00
51829;BME280;37881;48.024;8.774;2023-09-18T06:24:05;93480.81;;;16.98;100.00
51829;BME280;37881;48.024;8.774;2023-09-18T06:26:32;93472.47;;;17.16;100.00
51829;BME280;37881;48.024;8.774;2023-09-18T06:28:59;93477.72;;;17.14;100.00
51829;BME280;37881;48.024;8.774;2023-09-18T06:31:26;93481.16;;;17.33;100.00
51829;BME280;37881;48.024;8.774;2023-09-18T06:33:53;93486.03;;;17.14;100.00
51829;BME280;37881;48.024;8.774;2023-09-18T06:36:20;93495.31;;;17.35;100.00
51829;BME280;37881;48.024;8.774;2023-09-18T06:38:46;93498.22;;;17.41;100.00
51829;BME280;37881;48.024;8.774;2023-09-18T06:41:13;93496.47;;;17.53;100.00
51829;BME280;37881;48.024;8.774;2023-09-18T06:43:41;93515.34;;;17.64;100.00
51829;BME280;37881;48.024;8.774;2023-09-18T06:46:07;93512.03;;;17.74;100.00
51829;BME280;37881;48.024;8.774;2023-09-18T06:48:35;93521.91;;;17.75;100.00
51829;BME280;37881;48.024;8.774;2023-09-18T06:51:01;93537.25;;;17.95;100.00
51829;BME280;37881;48.024;8.774;2023-09-18T06:53:28;93540.34;;;17.64;100.00
51829;BME280;37881;48.024;8.774;2023-09-18T06:55:55;93544.16;;;17.66;100.00
51829;BME280;37881;48.024;8.774;2023-09-18T06:58:22;93549.38;;;17.73;100.00
51829;BME280;37881;48.024;8.774;2023-09-18T07:00:48;93555.69;;;17.83;100.00
51829;BME280;37881;48.024;8.774;2023-09-18T07:03:17;93556.50;;;17.99;100.00
51829;BME280;37881;48.024;8.774;2023-09-18T07:05:45;93566.59;;;18.11;100.00
51829;BME280;37881;48.024;8.774;2023-09-18T07:08:12;93564.91;;;18.13;100.00
51829;BME280;37881;48.024;8.774;2023-09-18T07:10:39;93562.28;;;18.10;100.00
51829;BME280;37881;48.024;8.774;2023-09-18T07:13:06;93577.47;;;18.24;100.00
51829;BME280;37881;48.024;8.774;2023-09-18T07:15:33;93571.03;;;18.17;100.00
51829;BME280;37881;48.024;8.774;2023-09-18T07:18:00;93570.09;;;18.21;100.00
51829;BME280;37881;48.024;8.774;2023-09-18T07:20:27;93571.34;;;18.20;100.00
51829;BME280;37881;48.024;8.774;2023-09-18T07:22:53;93592.84;;;18.10;100.00
51829;BME280;37881;48.024;8.774;2023-09-18T07:25:20;93596.56;;;18.07;100.00
51829;BME280;37881;48.024;8.774;2023-09-18T07:27:47;93605.19;;;18.09;100.00
51829;BME280;37881;48.024;8.774;2023-09-18T07:30:14;93626.47;;;18.12;100.00
51829;BME280;37881;48.024;8.774;2023-09-18T07:32:45;93597.44;;;17.89;100.00
51829;BME280;37881;48.024;8.774;2023-09-18T07:35:13;93576.72;;;17.56;100.00
51829;BME280;37881;48.024;8.774;2023-09-18T07:37:41;93601.09;;;17.52;100.00
51829;BME280;37881;48.024;8.774;2023-09-18T07:40:10;93620.56;;;17.43;100.00
51829;BME280;37881;48.024;8.774;2023-09-18T07:42:37;93631.66;;;17.43;100.00
51829;BME280;37881;48.024;8.774;2023-09-18T07:45:04;93640.50;;;17.23;100.00
51829;BME280;37881;48.024;8.774;2023-09-18T07:47:31;93643.13;;;17.17;100.00
51829;BME280;37881;48.024;8.774;2023-09-18T07:49:59;93643.31;;;17.05;100.00
51829;BME280;37881;48.024;8.774;2023-09-18T07:52:26;93668.09;;;16.90;100.00
51829;BME280;37881;48.024;8.774;2023-09-18T07:54:53;93659.63;;;16.75;100.00
51829;BME280;37881;48.024;8.774;2023-09-18T07:57:20;93668.09;;;16.62;100.00
51829;BME280;37881;48.024;8.774;2023-09-18T07:59:49;93677.75;;;16.39;100.00
51829;BME280;37881;48.024;8.774;2023-09-18T08:02:16;93663.59;;;16.37;100.00
51829;BME280;37881;48.024;8.774;2023-09-18T08:04:44;93648.16;;;16.08;100.00
51829;BME280;37881;48.024;8.774;2023-09-18T08:07:11;93635.09;;;16.18;100.00
51829;BME280;37881;48.024;8.774;2023-09-18T08:09:39;93632.91;;;15.94;100.00
51829;BME280;37881;48.024;8.774;2023-09-18T08:12:09;93631.25;;;15.66;100.00
51829;BME280;37881;48.024;8.774;2023-09-18T08:14:35;93618.13;;;15.97;100.00
51829;BME280;37881;48.024;8.774;2023-09-18T08:17:03;93604.78;;;16.24;100.00
51829;BME280;37881;48.024;8.774;2023-09-18T08:19:33;93607.56;;;16.70;100.00
51829;BME280;37881;48.024;8.774;2023-09-18T08:22:00;93604.81;;;16.51;100.00
51829;BME280;37881;48.024;8.774;2023-09-18T08:24:30;93608.53;;;16.48;100.00
51829;BME280;37881;48.024;8.774;2023-09-18T08:26:57;93610.69;;;16.90;100.00
51829;BME280;37881;48.024;8.774;2023-09-18T08:29:24;93603.75;;;16.76;100.00
51829;BME280;37881;48.024;8.774;2023-09-18T08:31:50;93610.22;;;16.55;100.00
51829;BME280;37881;48.024;8.774;2023-09-18T08:34:17;93609.59;;;16.51;100.00
51829;BME280;37881;48.024;8.774;2023-09-18T08:36:46;93601.28;;;16.42;100.00
51829;BME280;37881;48.024;8.774;2023-09-18T08:39:14;93618.22;;;16.81;100.00
51829;BME280;37881;48.024;8.774;2023-09-18T08:41:42;93610.34;;;17.07;100.00
51829;BME280;37881;48.024;8.774;2023-09-18T08:44:09;93622.69;;;16.96;100.00
51829;BME280;37881;48.024;8.774;2023-09-18T08:46:37;93618.84;;;16.66;100.00
51829;BME280;37881;48.024;8.774;2023-09-18T08:49:04;93616.94;;;16.17;100.00
51829;BME280;37881;48.024;8.774;2023-09-18T08:51:32;93628.06;;;16.45;100.00
51829;BME280;37881;48.024;8.774;2023-09-18T08:54:00;93615.28;;;16.56;100.00
51829;BME280;37881;48.024;8.774;2023-09-18T08:56:29;93631.59;;;16.54;100.00
51829;BME280;37881;48.024;8.774;2023-09-18T08:58:57;93668.69;;;16.57;100.00
51829;BME280;37881;48.024;8.774;2023-09-18T09:01:26;93661.78;;;16.71;100.00
51829;BME280;37881;48.024;8.774;2023-09-18T09:03:53;93663.91;;;16.57;100.00
51829;BME280;37881;48.024;8.774;2023-09-18T09:06:20;93654.06;;;16.47;100.00
51829;BME280;37881;48.024;8.774;2023-09-18T09:08:46;93666.22;;;16.50;100.00
51829;BME280;37881;48.024;8.774;2023-09-18T09:11:13;93675.13;;;16.35;100.00
51829;BME280;37881;48.024;8.774;2023-09-18T09:13:40;93671.09;;;16.27;100.00
51829;BME280;37881;48.024;8.774;2023-09-18T09:16:13;93677.56;;;16.33;100.00
51829;BME280;37881;48.024;8.774;2023-09-18T09:18:48;93683.25;;;16.21;100.00
51829;BME280;37881;48.024;8.774;2023-09-18T09:21:16;93695.75;;;16.34;100.00
51829;BME280;37881;48.024;8.774;2023-09-18T09:23:51;93693.47;;;16.42;100.00
51829;BME280;37881;48.024;8.774;2023-09-18T09:26:21;93697.75;;;16.34;100.00
51829;BME280;37881;48.024;8.774;2023-09-18T09:28:48;93701.31;;;16.53;100.00
51829;BME280;37881;48.024;8.774;2023-09-18T09:31:42;93705.63;;;16.54;100.00
51829;BME280;37881;48.024;8.774;2023-09-18T09:34:09;93711.63;;;16.62;100.00
51829;BME280;37881;48.024;8.774;2023-09-18T09:36:36;93712.78;;;16.83;100.00
51829;BME280;37881;48.024;8.774;2023-09-18T09:39:03;93698.91;;;16.92;100.00
51829;BME280;37881;48.024;8.774;2023-09-18T09:41:31;93705.25;;;16.92;100.00
51829;BME280;37881;48.024;8.774;2023-09-18T09:44:00;93703.34;;;16.80;100.00
51829;BME280;37881;48.024;8.774;2023-09-18T09:46:27;93690.44;;;16.95;100.00
51829;BME280;37881;48.024;8.774;2023-09-18T09:49:01;93694.28;;;17.07;100.00
51829;BME280;37881;48.024;8.774;2023-09-18T09:51:29;93693.97;;;16.68;100.00
51829;BME280;37881;48.024;8.774;2023-09-18T09:53:56;93676.22;;;16.47;100.00
51829;BME280;37881;48.024;8.774;2023-09-18T09:56:47;93670.81;;;16.34;100.00
51829;BME280;37881;48.024;8.774;2023-09-18T09:59:18;93655.88;;;16.23;100.00
51829;BME280;37881;48.024;8.774;2023-09-18T10:01:47;93659.84;;;16.12;100.00
51829;BME280;37881;48.024;8.774;2023-09-18T10:04:17;93653.59;;;16.30;100.00
51829;BME280;37881;48.024;8.774;2023-09-18T10:06:50;93635.88;;;16.28;100.00
51829;BME280;37881;48.024;8.774;2023-09-18T10:09:19;93612.16;;;16.17;100.00
51829;BME280;37881;48.024;8.774;2023-09-18T10:11:51;93604.00;;;16.05;100.00
51829;BME280;37881;48.024;8.774;2023-09-18T10:14:29;93609.69;;;16.01;100.00
51829;BME280;37881;48.024;8.774;2023-09-18T10:17:18;93642.94;;;16.10;100.00
51829;BME280;37881;48.024;8.774;2023-09-18T10:20:09;93662.31;;;16.20;100.00
51829;BME280;37881;48.024;8.774;2023-09-18T10:22:48;93680.97;;;16.37;100.00
51829;BME280;37881;48.024;8.774;2023-09-18T10:25:21;93690.72;;;16.61;100.00
51829;BME280;37881;48.024;8.774;2023-09-18T10:27:50;93681.63;;;16.60;100.00
51829;BME280;37881;48.024;8.774;2023-09-18T10:30:20;93674.22;;;16.57;100.00
51829;BME280;37881;48.024;8.774;2023-09-18T10:32:50;93684.25;;;16.73;100.00
51829;BME280;37881;48.024;8.774;2023-09-18T10:35:17;93687.00;;;16.64;100.00
51829;BME280;37881;48.024;8.774;2023-09-18T10:37:46;93695.00;;;16.62;100.00
51829;BME280;37881;48.024;8.774;2023-09-18T10:40:15;93674.25;;;16.66;100.00
51829;BME280;37881;48.024;8.774;2023-09-18T10:42:42;93681.31;;;16.67;100.00
51829;BME280;37881;48.024;8.774;2023-09-18T10:45:10;93680.69;;;16.63;100.00
51829;BME280;37881;48.024;8.774;2023-09-18T10:47:43;93687.94;;;16.70;100.00
51829;BME280;37881;48.024;8.774;2023-09-18T10:50:12;93685.16;;;16.61;100.00
51829;BME280;37881;48.024;8.774;2023-09-18T10:52:43;93682.88;;;16.68;100.00
51829;BME280;37881;48.024;8.774;2023-09-18T10:55:14;93681.16;;;16.80;100.00
51829;BME280;37881;48.024;8.774;2023-09-18T10:57:55;93678.38;;;16.80;100.00
51829;BME280;37881;48.024;8.774;2023-09-18T11:00:24;93672.38;;;16.54;100.00
51829;BME280;37881;48.024;8.774;2023-09-18T11:02:52;93668.53;;;16.42;100.00
51829;BME280;37881;48.024;8.774;2023-09-18T11:05:29;93664.66;;;16.40;100.00
51829;BME280;37881;48.024;8.774;2023-09-18T11:08:32;93669.59;;;16.45;100.00
51829;BME280;37881;48.024;8.774;2023-09-18T11:11:08;93661.63;;;16.56;100.00
51829;BME280;37881;48.024;8.774;2023-09-18T11:13:43;93667.16;;;16.65;100.00
51829;BME280;37881;48.024;8.774;2023-09-18T11:16:14;93649.59;;;16.41;100.00
51829;BME280;37881;48.024;8.774;2023-09-18T11:18:41;93637.44;;;16.38;100.00
51829;BME280;37881;48.024;8.774;2023-09-18T11:21:12;93616.81;;;16.21;100.00
51829;BME280;37881;48.024;8.774;2023-09-18T11:23:39;93622.94;;;16.15;100.00
51829;BME280;37881;48.024;8.774;2023-09-18T11:26:10;93627.25;;;16.16;100.00
51829;BME280;37881;48.024;8.774;2023-09-18T11:28:37;93625.91;;;16.30;100.00
51829;BME280;37881;48.024;8.774;2023-09-18T11:31:05;93599.13;;;16.27;100.00
51829;BME280;37881;48.024;8.774;2023-09-18T11:33:36;93576.34;;;16.23;100.00
51829;BME280;37881;48.024;8.774;2023-09-18T11:36:08;93580.34;;;16.31;100.00
51829;BME280;37881;48.024;8.774;2023-09-18T11:38:55;93569.56;;;16.61;100.00
51829;BME280;37881;48.024;8.774;2023-09-18T11:41:27;93609.75;;;16.93;100.00
51829;BME280;37881;48.024;8.774;2023-09-18T11:46:41;93687.38;;;17.73;100.00
51829;BME280;37881;48.024;8.774;2023-09-18T11:49:11;93687.84;;;17.71;100.00
51829;BME280;37881;48.024;8.774;2023-09-18T11:51:41;93675.09;;;17.46;100.00
51829;BME280;37881;48.024;8.774;2023-09-18T11:54:09;93655.91;;;17.24;100.00
51829;BME280;37881;48.024;8.774;2023-09-18T11:56:39;93659.16;;;17.23;100.00
51829;BME280;37881;48.024;8.774;2023-09-18T11:59:06;93666.25;;;16.96;100.00
51829;BME280;37881;48.024;8.774;2023-09-18T12:01:33;93670.41;;;16.73;100.00
51829;BME280;37881;48.024;8.774;2023-09-18T12:04:03;93661.63;;;16.74;100.00
51829;BME280;37881;48.024;8.774;2023-09-18T12:06:39;93680.13;;;16.87;100.00
51829;BME280;37881;48.024;8.774;2023-09-18T12:09:07;93676.41;;;16.62;100.00
51829;BME280;37881;48.024;8.774;2023-09-18T12:11:35;93673.78;;;16.68;100.00
51829;BME280;37881;48.024;8.774;2023-09-18T12:14:04;93656.22;;;16.71;100.00
51829;BME280;37881;48.024;8.774;2023-09-18T12:16:40;93669.94;;;16.74;100.00
51829;BME280;37881;48.024;8.774;2023-09-18T12:19:16;93667.66;;;16.91;100.00
51829;BME280;37881;48.024;8.774;2023-09-18T12:21:46;93642.06;;;16.78;100.00
51829;BME280;37881;48.024;8.774;2023-09-18T12:24:26;93648.41;;;16.88;100.00
51829;BME280;37881;48.024;8.774;2023-09-18T12:26:54;93641.91;;;17.19;100.00
51829;BME280;37881;48.024;8.774;2023-09-18T12:29:22;93648.19;;;17.28;100.00
51829;BME280;37881;48.024;8.774;2023-09-18T12:31:49;93632.78;;;17.36;100.00
51829;BME280;37881;48.024;8.774;2023-09-18T12:34:17;93640.78;;;17.34;100.00
51829;BME280;37881;48.024;8.774;2023-09-18T12:36:45;93634.16;;;17.74;100.00
51829;BME280;37881;48.024;8.774;2023-09-18T12:39:17;93631.06;;;17.82;100.00
51829;BME280;37881;48.024;8.774;2023-09-18T12:41:44;93638.06;;;17.68;100.00
51829;BME280;37881;48.024;8.774;2023-09-18T12:44:12;93639.59;;;17.69;100.00
51829;BME280;37881;48.024;8.774;2023-09-18T12:46:41;93634.25;;;17.56;100.00
51829;BME280;37881;48.024;8.774;2023-09-18T12:49:18;93655.94;;;17.06;100.00
51829;BME280;37881;48.024;8.774;2023-09-18T12:51:59;93661.63;;;17.11;100.00
51829;BME280;37881;48.024;8.774;2023-09-18T12:57:10;93633.25;;;17.26;100.00
51829;BME280;37881;48.024;8.774;2023-09-18T12:59:37;93624.97;;;17.16;100.00
51829;BME280;37881;48.024;8.774;2023-09-18T13:02:05;93631.72;;;17.15;100.00
51829;BME280;37881;48.024;8.774;2023-09-18T13:04:33;93631.38;;;17.41;100.00
51829;BME280;37881;48.024;8.774;2023-09-18T13:07:10;93636.91;;;17.41;100.00
51829;BME280;37881;48.024;8.774;2023-09-18T13:09:39;93628.91;;;17.43;100.00
51829;BME280;37881;48.024;8.774;2023-09-18T13:12:07;93621.78;;;17.51;100.00